sensor_id;sensor_type;location;lat;lon;timestamp;pressure;altitude;pressure_sealevel;temperature;humidity
7309;BME280;3695;53.330;9.876;2022-10-30T00:00:45;118434.06;;;14.06;59.88
7309;BME280;3695;53.330;9.876;2022-10-30T00:03:12;118423.91;;;14.05;59.92
7309;BME280;3695;53.330;9.876;2022-10-30T00:05:40;118391.69;;;13.95;60.01
7309;BME280;3695;53.330;9.876;2022-10-30T00:08:09;118365.81;;;14.00;59.94
7309;BME280;3695;53.330;9.876;2022-10-30T00:10:37;118344.19;;;13.88;60.11
7309;BME280;3695;53.330;9.876;2022-10-30T00:13:04;118247.66;;;13.74;60.25
7309;BME280;3695;53.330;9.876;2022-10-30T00:15:31;118291.38;;;13.89;59.99
7309;BME280;3695;53.330;9.876;2022-10-30T00:17:58;118243.34;;;13.76;60.09
7309;BME280;3695;53.330;9.876;2022-10-30T00:20:24;118188.63;;;13.69;60.17
7309;BME280;3695;53.330;9.876;2022-10-30T00:22:51;118247.25;;;13.71;60.07
7309;BME280;3695;53.330;9.876;2022-10-30T00:25:17;118202.72;;;13.65;60.13
7309;BME280;3695;53.330;9.876;2022-10-30T00:27:45;118170.13;;;13.60;60.17
7309;BME280;3695;53.330;9.876;2022-10-30T00:30:12;118172.31;;;13.55;60.15
7309;BME280;3695;53.330;9.876;2022-10-30T00:32:39;118148.47;;;13.54;60.13
7309;BME280;3695;53.330;9.876;2022-10-30T00:35:07;118100.28;;;13.40;60.22
7309;BME280;3695;53.330;9.876;2022-10-30T00:37:34;118110.63;;;13.43;60.10
7309;BME280;3695;53.330;9.876;2022-10-30T00:40:00;118152.47;;;13.42;60.00
7309;BME280;3695;53.330;9.876;2022-10-30T00:42:28;118187.97;;;13.49;59.87
7309;BME280;3695;53.330;9.876;2022-10-30T00:44:56;118145.41;;;13.44;59.92
7309;BME280;3695;53.330;9.876;2022-10-30T00:47:25;118154.59;;;13.44;59.88
7309;BME280;3695;53.330;9.876;2022-10-30T00:49:56;118084.13;;;13.35;60.00
7309;BME280;3695;53.330;9.876;2022-10-30T00:52:26;118055.78;;;13.34;59.96
7309;BME280;3695;53.330;9.876;2022-10-30T00:54:55;118149.06;;;13.51;59.77
7309;BME280;3695;53.330;9.876;2022-10-30T00:57:23;118135.19;;;13.50;59.79
7309;BME280;3695;53.330;9.876;2022-10-30T00:59:50;118122.13;;;13.47;59.86
7309;BME280;3695;53.330;9.876;2022-10-30T01:02:19;118112.72;;;13.52;59.85
7309;BME280;3695;53.330;9.876;2022-10-30T01:04:47;118155.03;;;13.63;59.77
7309;BME280;3695;53.330;9.876;2022-10-30T01:07:16;118134.66;;;13.68;59.76
7309;BME280;3695;53.330;9.876;2022-10-30T01:09:44;118162.03;;;13.75;59.73
7309;BME280;3695;53.330;9.876;2022-10-30T01:12:12;118154.19;;;13.71;59.89
7309;BME280;3695;53.330;9.876;2022-10-30T01:14:41;118207.66;;;13.91;59.79
7309;BME280;3695;53.330;9.876;2022-10-30T01:20:24;118188.84;;;13.94;60.00
7309;BME280;3695;53.330;9.876;2022-10-30T01:23:00;118130.50;;;14.02;60.04
7309;BME280;3695;53.330;9.876;2022-10-30T01:25:40;118059.97;;;13.92;60.27
7309;BME280;3695;53.330;9.876;2022-10-30T01:28:21;118091.19;;;14.01;60.25
7309;BME280;3695;53.330;9.876;2022-10-30T01:30:59;117984.72;;;13.89;60.53
7309;BME280;3695;53.330;9.876;2022-10-30T01:33:38;118060.25;;;14.02;60.40
7309;BME280;3695;53.330;9.876;2022-10-30T01:36:13;118027.03;;;13.99;60.51
7309;BME280;3695;53.330;9.876;2022-10-30T01:38:46;117961.84;;;13.88;60.73
7309;BME280;3695;53.330;9.876;2022-10-30T01:41:14;117943.47;;;13.87;60.78
7309;BME280;3695;53.330;9.876;2022-10-30T01:43:42;117869.31;;;13.77;60.94
7309;BME280;3695;53.330;9.876;2022-10-30T01:46:30;117935.44;;;13.89;60.74
7309;BME280;3695;53.330;9.876;2022-10-30T01:49:12;117852.59;;;13.67;61.00
7309;BME280;3695;53.330;9.876;2022-10-30T01:51:52;117845.69;;;13.70;60.90
7309;BME280;3695;53.330;9.876;2022-10-30T01:54:31;117863.00;;;13.62;60.90
7309;BME280;3695;53.330;9.876;2022-10-30T01:57:07;117833.97;;;13.55;60.94
7309;BME280;3695;53.330;9.876;2022-10-30T01:59:41;117795.41;;;13.45;61.00
7309;BME280;3695;53.330;9.876;2022-10-30T02:02:09;117823.19;;;13.41;60.94
7309;BME280;3695;53.330;9.876;2022-10-30T02:04:38;117810.91;;;13.38;60.90
7309;BME280;3695;53.330;9.876;2022-10-30T02:07:05;117854.97;;;13.48;60.69
7309;BME280;3695;53.330;9.876;2022-10-30T02:09:31;117817.72;;;13.41;60.75
7309;BME280;3695;53.330;9.876;2022-10-30T02:11:58;117821.25;;;13.40;60.77
7309;BME280;3695;53.330;9.876;2022-10-30T02:14:27;117777.38;;;13.32;60.87
7309;BME280;3695;53.330;9.876;2022-10-30T02:16:56;117766.44;;;13.32;60.90
7309;BME280;3695;53.330;9.876;2022-10-30T02:19:23;117662.69;;;13.17;61.13
7309;BME280;3695;53.330;9.876;2022-10-30T02:21:51;117609.38;;;13.14;61.18
7309;BME280;3695;53.330;9.876;2022-10-30T02:24:18;117619.16;;;13.12;61.15
7309;BME280;3695;53.330;9.876;2022-10-30T02:26:45;117627.97;;;13.09;61.20
7309;BME280;3695;53.330;9.876;2022-10-30T02:29:11;117575.69;;;13.06;61.27
7309;BME280;3695;53.330;9.876;2022-10-30T02:31:38;117626.41;;;13.11;61.16
7309;BME280;3695;53.330;9.876;2022-10-30T02:34:04;117512.34;;;13.10;61.29
7309;BME280;3695;53.330;9.876;2022-10-30T02:36:31;117627.97;;;13.09;61.21
7309;BME280;3695;53.330;9.876;2022-10-30T02:38:59;117573.06;;;12.99;61.34
7309;BME280;3695;53.330;9.876;2022-10-30T02:41:25;117596.66;;;13.14;61.23
7309;BME280;3695;53.330;9.876;2022-10-30T02:43:52;117598.97;;;13.18;61.22
7309;BME280;3695;53.330;9.876;2022-10-30T02:46:18;117577.09;;;13.18;61.28
7309;BME280;3695;53.330;9.876;2022-10-30T02:48:45;117531.31;;;13.09;61.52
7309;BME280;3695;53.330;9.876;2022-10-30T02:51:11;117362.09;;;13.03;61.72
7309;BME280;3695;53.330;9.876;2022-10-30T02:53:38;117412.66;;;13.15;61.63
7309;BME280;3695;53.330;9.876;2022-10-30T02:56:08;117422.25;;;13.03;61.83
7309;BME280;3695;53.330;9.876;2022-10-30T02:58:35;117394.63;;;13.09;61.81
7309;BME280;3695;53.330;9.876;2022-10-30T03:01:06;117354.19;;;12.98;62.01
7309;BME280;3695;53.330;9.876;2022-10-30T03:03:32;117344.91;;;13.04;61.95
7309;BME280;3695;53.330;9.876;2022-10-30T03:06:00;117459.94;;;13.14;61.74
7309;BME280;3695;53.330;9.876;2022-10-30T03:08:26;117450.59;;;13.12;61.79
7309;BME280;3695;53.330;9.876;2022-10-30T03:10:58;117454.78;;;13.09;61.86
7309;BME280;3695;53.330;9.876;2022-10-30T03:13:26;117466.94;;;13.19;61.78
7309;BME280;3695;53.330;9.876;2022-10-30T03:15:58;117450.94;;;13.15;61.89
7309;BME280;3695;53.330;9.876;2022-10-30T03:18:24;117420.63;;;13.21;61.86
7309;BME280;3695;53.330;9.876;2022-10-30T03:20:55;117449.47;;;13.26;61.88
7309;BME280;3695;53.330;9.876;2022-10-30T03:23:21;117391.88;;;13.25;61.99
7309;BME280;3695;53.330;9.876;2022-10-30T03:25:50;117376.06;;;13.22;62.13
7309;BME280;3695;53.330;9.876;2022-10-30T03:28:17;117251.63;;;13.26;62.24
7309;BME280;3695;53.330;9.876;2022-10-30T03:30:45;117309.53;;;13.30;62.15
7309;BME280;3695;53.330;9.876;2022-10-30T03:33:11;117336.56;;;13.27;62.23
7309;BME280;3695;53.330;9.876;2022-10-30T03:35:37;117278.75;;;13.24;62.34
7309;BME280;3695;53.330;9.876;2022-10-30T03:38:04;117280.19;;;13.20;62.46
7309;BME280;3695;53.330;9.876;2022-10-30T03:40:30;117281.00;;;13.19;62.49
7309;BME280;3695;53.330;9.876;2022-10-30T03:42:57;117281.16;;;13.21;62.45
7309;BME280;3695;53.330;9.876;2022-10-30T03:45:23;117242.19;;;13.15;62.57
7309;BME280;3695;53.330;9.876;2022-10-30T03:47:51;117250.22;;;13.13;62.61
7309;BME280;3695;53.330;9.876;2022-10-30T03:50:18;117189.09;;;13.04;62.70
7309;BME280;3695;53.330;9.876;2022-10-30T03:52:44;117254.56;;;13.11;62.52
7309;BME280;3695;53.330;9.876;2022-10-30T03:55:10;117307.22;;;13.17;62.33
7309;BME280;3695;53.330;9.876;2022-10-30T03:57:37;117278.03;;;13.09;62.38
7309;BME280;3695;53.330;9.876;2022-10-30T04:00:05;117330.31;;;13.12;62.22
7309;BME280;3695;53.330;9.876;2022-10-30T04:02:32;117335.09;;;13.06;62.24
7309;BME280;3695;53.330;9.876;2022-10-30T04:04:59;117479.78;;;13.36;61.80
7309;BME280;3695;53.330;9.876;2022-10-30T04:07:26;117365.84;;;13.12;62.16
7309;BME280;3695;53.330;9.876;2022-10-30T04:09:53;117400.50;;;13.20;61.97
7309;BME280;3695;53.330;9.876;2022-10-30T04:12:20;117395.84;;;13.19;62.02
7309;BME280;3695;53.330;9.876;2022-10-30T04:14:46;117311.78;;;13.26;61.98
7309;BME280;3695;53.330;9.876;2022-10-30T04:17:12;117341.06;;;13.27;61.97
7309;BME280;3695;53.330;9.876;2022-10-30T04:19:39;117350.66;;;13.23;62.07
7309;BME280;3695;53.330;9.876;2022-10-30T04:22:07;117331.09;;;13.27;62.02
7309;BME280;3695;53.330;9.876;2022-10-30T04:24:33;117270.50;;;13.15;62.21
7309;BME280;3695;53.330;9.876;2022-10-30T04:26:59;117336.56;;;13.27;62.10
7309;BME280;3695;53.330;9.876;2022-10-30T04:29:26;117334.97;;;13.38;61.99
7309;BME280;3695;53.330;9.876;2022-10-30T04:31:52;117300.38;;;13.30;62.21
7309;BME280;3695;53.330;9.876;2022-10-30T04:34:19;117219.78;;;13.26;62.34
7309;BME280;3695;53.330;9.876;2022-10-30T04:36:45;117203.97;;;13.23;62.46
7309;BME280;3695;53.330;9.876;2022-10-30T04:39:13;117118.75;;;13.28;62.53
7309;BME280;3695;53.330;9.876;2022-10-30T04:41:39;117138.69;;;13.27;62.58
7309;BME280;3695;53.330;9.876;2022-10-30T04:44:06;117059.50;;;13.11;62.87
7309;BME280;3695;53.330;9.876;2022-10-30T04:46:32;117081.41;;;13.19;62.80
7309;BME280;3695;53.330;9.876;2022-10-30T04:48:58;117044.53;;;13.16;62.91
7309;BME280;3695;53.330;9.876;2022-10-30T04:51:25;116998.06;;;13.07;63.07
7309;BME280;3695;53.330;9.876;2022-10-30T04:53:51;117027.97;;;13.14;63.00
7309;BME280;3695;53.330;9.876;2022-10-30T04:56:19;117013.34;;;13.05;63.13
7309;BME280;3695;53.330;9.876;2022-10-30T04:58:46;116945.34;;;13.00;63.28
7309;BME280;3695;53.330;9.876;2022-10-30T05:01:12;116975.25;;;13.07;63.16
7309;BME280;3695;53.330;9.876;2022-10-30T05:03:38;116963.34;;;12.98;63.32
7309;BME280;3695;53.330;9.876;2022-10-30T05:06:06;117066.72;;;13.10;63.10
7309;BME280;3695;53.330;9.876;2022-10-30T05:08:38;116959.34;;;12.94;63.45
7309;BME280;3695;53.330;9.876;2022-10-30T05:11:04;116943.09;;;12.96;63.41
7309;BME280;3695;53.330;9.876;2022-10-30T05:13:32;117035.53;;;13.08;63.18
7309;BME280;3695;53.330;9.876;2022-10-30T05:15:59;116984.25;;;12.97;63.40
7309;BME280;3695;53.330;9.876;2022-10-30T05:18:25;116990.50;;;13.13;63.21
7309;BME280;3695;53.330;9.876;2022-10-30T05:20:51;116906.44;;;12.93;63.53
7309;BME280;3695;53.330;9.876;2022-10-30T05:23:18;116898.91;;;12.91;63.56
7309;BME280;3695;53.330;9.876;2022-10-30T05:25:44;116887.00;;;12.90;63.61
7309;BME280;3695;53.330;9.876;2022-10-30T05:28:11;116924.13;;;12.97;63.51
7309;BME280;3695;53.330;9.876;2022-10-30T05:30:38;116866.59;;;12.87;63.69
7309;BME280;3695;53.330;9.876;2022-10-30T05:33:08;116845.72;;;12.79;63.85
7309;BME280;3695;53.330;9.876;2022-10-30T05:35:35;116814.19;;;12.74;63.90
7309;BME280;3695;53.330;9.876;2022-10-30T05:38:04;116932.50;;;12.90;63.59
7309;BME280;3695;53.330;9.876;2022-10-30T05:40:31;116888.44;;;12.87;63.69
7309;BME280;3695;53.330;9.876;2022-10-30T05:42:58;116855.19;;;12.82;63.78
7309;BME280;3695;53.330;9.876;2022-10-30T05:45:25;116760.19;;;12.71;64.05
7309;BME280;3695;53.330;9.876;2022-10-30T05:47:57;116712.19;;;12.65;64.16
7309;BME280;3695;53.330;9.876;2022-10-30T05:50:24;116817.09;;;12.84;63.88
7309;BME280;3695;53.330;9.876;2022-10-30T05:52:54;116788.16;;;12.86;63.88
7309;BME280;3695;53.330;9.876;2022-10-30T05:55:20;116669.59;;;12.67;64.25
7309;BME280;3695;53.330;9.876;2022-10-30T05:57:46;116636.31;;;12.71;64.27
7309;BME280;3695;53.330;9.876;2022-10-30T06:00:14;116548.53;;;12.49;64.68
7309;BME280;3695;53.330;9.876;2022-10-30T06:02:40;116541.81;;;12.45;64.72
7309;BME280;3695;53.330;9.876;2022-10-30T06:05:08;116562.69;;;12.45;64.71
7309;BME280;3695;53.330;9.876;2022-10-30T06:07:35;116556.47;;;12.37;64.79
7309;BME280;3695;53.330;9.876;2022-10-30T06:10:01;116651.53;;;12.41;64.63
7309;BME280;3695;53.330;9.876;2022-10-30T06:12:28;116559.69;;;12.33;64.85
7309;BME280;3695;53.330;9.876;2022-10-30T06:14:54;116621.81;;;12.44;64.68
7309;BME280;3695;53.330;9.876;2022-10-30T06:17:21;116570.28;;;12.39;64.82
7309;BME280;3695;53.330;9.876;2022-10-30T06:19:47;116495.31;;;12.26;64.96
7309;BME280;3695;53.330;9.876;2022-10-30T06:22:15;116538.03;;;12.26;64.89
7309;BME280;3695;53.330;9.876;2022-10-30T06:24:41;116608.34;;;12.37;64.58
7309;BME280;3695;53.330;9.876;2022-10-30T06:27:07;116637.75;;;12.31;64.66
7309;BME280;3695;53.330;9.876;2022-10-30T06:29:34;116627.63;;;12.30;64.62
7309;BME280;3695;53.330;9.876;2022-10-30T06:32:00;116661.84;;;12.35;64.49
7309;BME280;3695;53.330;9.876;2022-10-30T06:34:27;116667.78;;;12.31;64.57
7309;BME280;3695;53.330;9.876;2022-10-30T06:36:53;116468.50;;;12.22;64.81
7309;BME280;3695;53.330;9.876;2022-10-30T06:39:21;116674.34;;;12.42;64.26
7309;BME280;3695;53.330;9.876;2022-10-30T06:41:48;116726.22;;;12.33;64.39
7309;BME280;3695;53.330;9.876;2022-10-30T06:44:14;116747.09;;;12.41;64.28
7309;BME280;3695;53.330;9.876;2022-10-30T06:46:40;116770.53;;;12.56;64.04
7309;BME280;3695;53.330;9.876;2022-10-30T06:49:07;116712.88;;;12.45;64.27
7309;BME280;3695;53.330;9.876;2022-10-30T06:51:33;116699.22;;;12.45;64.34
7309;BME280;3695;53.330;9.876;2022-10-30T06:54:00;116774.03;;;12.64;64.03
7309;BME280;3695;53.330;9.876;2022-10-30T06:56:27;116745.44;;;12.60;64.19
7309;BME280;3695;53.330;9.876;2022-10-30T06:58:54;116580.69;;;12.43;64.58
7309;BME280;3695;53.330;9.876;2022-10-30T07:01:20;116596.72;;;12.48;64.50
7309;BME280;3695;53.330;9.876;2022-10-30T07:03:47;116716.50;;;12.71;64.19
7309;BME280;3695;53.330;9.876;2022-10-30T07:06:13;116682.13;;;12.65;64.37
7309;BME280;3695;53.330;9.876;2022-10-30T07:08:39;116577.13;;;12.52;64.67
7309;BME280;3695;53.330;9.876;2022-10-30T07:11:06;116626.19;;;12.70;64.42
7309;BME280;3695;53.330;9.876;2022-10-30T07:13:34;116648.34;;;12.73;64.42
7309;BME280;3695;53.330;9.876;2022-10-30T07:16:00;116676.63;;;12.82;64.39
7309;BME280;3695;53.330;9.876;2022-10-30T07:18:26;116617.13;;;12.88;64.43
7309;BME280;3695;53.330;9.876;2022-10-30T07:20:53;116615.66;;;12.91;64.48
7309;BME280;3695;53.330;9.876;2022-10-30T07:23:21;116557.03;;;12.88;64.63
7309;BME280;3695;53.330;9.876;2022-10-30T07:25:47;116631.13;;;13.10;64.36
7309;BME280;3695;53.330;9.876;2022-10-30T07:28:14;116648.78;;;13.13;64.41
7309;BME280;3695;53.330;9.876;2022-10-30T07:30:42;116653.44;;;13.14;64.52
7309;BME280;3695;53.330;9.876;2022-10-30T07:33:09;116688.81;;;13.30;64.43
7309;BME280;3695;53.330;9.876;2022-10-30T07:35:35;116649.63;;;13.40;64.44
7309;BME280;3695;53.330;9.876;2022-10-30T07:38:02;116600.84;;;13.44;64.63
7309;BME280;3695;53.330;9.876;2022-10-30T07:40:29;116474.38;;;13.47;64.85
7309;BME280;3695;53.330;9.876;2022-10-30T07:42:56;116446.84;;;13.64;64.83
7309;BME280;3695;53.330;9.876;2022-10-30T07:45:23;116353.00;;;13.65;65.12
7309;BME280;3695;53.330;9.876;2022-10-30T07:47:51;116264.13;;;13.80;65.17
7309;BME280;3695;53.330;9.876;2022-10-30T07:50:17;116314.88;;;14.07;65.00
7309;BME280;3695;53.330;9.876;2022-10-30T07:52:43;116337.09;;;14.21;65.15
7309;BME280;3695;53.330;9.876;2022-10-30T07:55:10;116311.31;;;14.39;65.22
7309;BME280;3695;53.330;9.876;2022-10-30T07:57:37;116203.28;;;14.35;65.76
7309;BME280;3695;53.330;9.876;2022-10-30T08:00:07;116102.34;;;14.72;65.69
7309;BME280;3695;53.330;9.876;2022-10-30T08:02:33;115970.50;;;14.79;66.10
7309;BME280;3695;53.330;9.876;2022-10-30T08:05:01;115900.22;;;14.91;66.44
7309;BME280;3695;53.330;9.876;2022-10-30T08:07:28;115670.59;;;14.87;67.20
7309;BME280;3695;53.330;9.876;2022-10-30T08:09:55;115635.28;;;15.03;67.51
7309;BME280;3695;53.330;9.876;2022-10-30T08:12:22;115415.72;;;15.25;68.06
7309;BME280;3695;53.330;9.876;2022-10-30T08:14:48;115345.38;;;15.39;68.66
7309;BME280;3695;53.330;9.876;2022-10-30T08:17:14;115040.22;;;15.41;69.85
7309;BME280;3695;53.330;9.876;2022-10-30T08:19:41;114726.78;;;15.73;70.75
7309;BME280;3695;53.330;9.876;2022-10-30T08:22:09;114186.50;;;15.96;72.42
7309;BME280;3695;53.330;9.876;2022-10-30T08:24:36;113672.94;;;15.84;74.73
7309;BME280;3695;53.330;9.876;2022-10-30T08:27:03;113360.41;;;16.15;75.96
7309;BME280;3695;53.330;9.876;2022-10-30T08:29:29;112731.56;;;16.34;78.26
7309;BME280;3695;53.330;9.876;2022-10-30T08:31:56;112170.03;;;16.46;81.02
7309;BME280;3695;53.330;9.876;2022-10-30T08:34:22;111729.94;;;16.30;84.34
7309;BME280;3695;53.330;9.876;2022-10-30T08:36:50;111266.25;;;16.65;87.37
7309;BME280;3695;53.330;9.876;2022-10-30T08:39:19;110641.41;;;16.70;92.70
7309;BME280;3695;53.330;9.876;2022-10-30T08:41:45;110076.47;;;16.50;99.75
7309;BME280;3695;53.330;9.876;2022-10-30T08:44:12;109672.22;;;16.56;100.00
7309;BME280;3695;53.330;9.876;2022-10-30T08:46:38;109334.63;;;16.62;100.00
7309;BME280;3695;53.330;9.876;2022-10-30T08:49:05;108919.34;;;16.67;100.00
7309;BME280;3695;53.330;9.876;2022-10-30T08:51:31;108484.41;;;16.62;100.00
7309;BME280;3695;53.330;9.876;2022-10-30T08:53:58;108129.44;;;16.85;100.00
7309;BME280;3695;53.330;9.876;2022-10-30T08:56:26;107775.69;;;16.83;100.00
7309;BME280;3695;53.330;9.876;2022-10-30T08:58:53;107453.94;;;16.83;100.00
7309;BME280;3695;53.330;9.876;2022-10-30T09:01:19;107284.06;;;16.94;100.00
7309;BME280;3695;53.330;9.876;2022-10-30T09:03:47;107036.34;;;17.19;100.00
7309;BME280;3695;53.330;9.876;2022-10-30T09:06:13;106730.66;;;17.10;100.00
7309;BME280;3695;53.330;9.876;2022-10-30T09:08:40;106560.66;;;16.97;100.00
7309;BME280;3695;53.330;9.876;2022-10-30T09:11:06;106434.28;;;17.12;100.00
7309;BME280;3695;53.330;9.876;2022-10-30T09:13:34;106273.03;;;17.26;100.00
7309;BME280;3695;53.330;9.876;2022-10-30T09:16:00;106061.06;;;17.24;100.00
7309;BME280;3695;53.330;9.876;2022-10-30T09:18:29;105843.34;;;17.25;100.00
7309;BME280;3695;53.330;9.876;2022-10-30T09:20:55;105813.78;;;17.39;100.00
7309;BME280;3695;53.330;9.876;2022-10-30T09:23:22;105823.28;;;17.25;100.00
7309;BME280;3695;53.330;9.876;2022-10-30T09:25:48;105765.97;;;17.31;100.00
7309;BME280;3695;53.330;9.876;2022-10-30T09:28:14;105716.44;;;17.33;100.00
7309;BME280;3695;53.330;9.876;2022-10-30T09:30:42;105797.88;;;17.42;100.00
7309;BME280;3695;53.330;9.876;2022-10-30T09:33:09;105784.34;;;17.50;100.00
7309;BME280;3695;53.330;9.876;2022-10-30T09:35:35;105689.44;;;17.57;100.00
7309;BME280;3695;53.330;9.876;2022-10-30T09:38:02;105578.66;;;17.58;100.00
7309;BME280;3695;53.330;9.876;2022-10-30T09:40:37;105077.94;;;17.97;100.00
7309;BME280;3695;53.330;9.876;2022-10-30T09:43:15;104908.06;;;17.93;100.00
7309;BME280;3695;53.330;9.876;2022-10-30T09:46:11;104739.22;;;17.89;100.00
7309;BME280;3695;53.330;9.876;2022-10-30T09:49:13;104664.59;;;17.86;100.00
7309;BME280;3695;53.330;9.876;2022-10-30T09:51:57;104660.78;;;18.19;100.00
7309;BME280;3695;53.330;9.876;2022-10-30T09:54:34;104560.97;;;18.04;100.00
7309;BME280;3695;53.330;9.876;2022-10-30T09:57:13;104554.97;;;18.40;100.00
7309;BME280;3695;53.330;9.876;2022-10-30T09:59:54;104426.41;;;18.35;100.00
7309;BME280;3695;53.330;9.876;2022-10-30T10:02:32;104353.00;;;18.52;100.00
7309;BME280;3695;53.330;9.876;2022-10-30T10:05:04;104346.88;;;18.42;100.00
7309;BME280;3695;53.330;9.876;2022-10-30T10:07:34;104365.78;;;18.37;100.00
7309;BME280;3695;53.330;9.876;2022-10-30T10:10:05;104374.41;;;18.34;100.00
7309;BME280;3695;53.330;9.876;2022-10-30T10:12:39;104419.75;;;18.30;100.00
7309;BME280;3695;53.330;9.876;2022-10-30T10:15:11;104483.22;;;18.35;100.00
7309;BME280;3695;53.330;9.876;2022-10-30T10:17:43;104521.63;;;18.43;100.00
7309;BME280;3695;53.330;9.876;2022-10-30T10:20:26;104523.56;;;18.73;100.00
7309;BME280;3695;53.330;9.876;2022-10-30T10:22:56;104467.63;;;18.66;100.00
7309;BME280;3695;53.330;9.876;2022-10-30T10:25:26;104378.00;;;18.57;100.00
7309;BME280;3695;53.330;9.876;2022-10-30T10:28:02;104343.47;;;18.63;100.00
7309;BME280;3695;53.330;9.876;2022-10-30T10:30:40;104431.16;;;18.72;100.00
7309;BME280;3695;53.330;9.876;2022-10-30T10:33:27;104458.63;;;18.72;100.00
7309;BME280;3695;53.330;9.876;2022-10-30T10:36:04;104387.09;;;18.80;100.00
7309;BME280;3695;53.330;9.876;2022-10-30T10:38:47;104394.75;;;18.93;100.00
7309;BME280;3695;53.330;9.876;2022-10-30T10:41:23;104428.06;;;18.90;100.00
7309;BME280;3695;53.330;9.876;2022-10-30T10:44:05;104389.34;;;19.00;100.00
7309;BME280;3695;53.330;9.876;2022-10-30T10:46:50;104330.56;;;19.01;100.00
7309;BME280;3695;53.330;9.876;2022-10-30T10:49:31;104305.25;;;19.05;100.00
7309;BME280;3695;53.330;9.876;2022-10-30T10:52:07;104283.13;;;19.28;100.00
7309;BME280;3695;53.330;9.876;2022-10-30T10:54:40;104174.41;;;19.32;100.00
7309;BME280;3695;53.330;9.876;2022-10-30T10:57:14;104149.91;;;19.37;100.00
7309;BME280;3695;53.330;9.876;2022-10-30T10:59:44;104116.91;;;19.37;100.00
7309;BME280;3695;53.330;9.876;2022-10-30T11:02:27;104103.03;;;19.45;100.00
7309;BME280;3695;53.330;9.876;2022-10-30T11:04:59;104090.56;;;19.28;100.00
7309;BME280;3695;53.330;9.876;2022-10-30T11:07:29;104112.34;;;19.44;100.00
7309;BME280;3695;53.330;9.876;2022-10-30T11:09:57;104072.84;;;19.52;100.00
7309;BME280;3695;53.330;9.876;2022-10-30T11:12:26;104026.06;;;19.52;100.00
7309;BME280;3695;53.330;9.876;2022-10-30T11:14:54;104001.63;;;19.64;100.00
7309;BME280;3695;53.330;9.876;2022-10-30T11:17:23;103893.22;;;19.58;100.00
7309;BME280;3695;53.330;9.876;2022-10-30T11:19:57;103859.63;;;19.76;100.00
7309;BME280;3695;53.330;9.876;2022-10-30T11:22:30;103774.03;;;19.58;100.00
7309;BME280;3695;53.330;9.876;2022-10-30T11:25:17;103729.81;;;19.66;100.00
7309;BME280;3695;53.330;9.876;2022-10-30T11:27:46;103721.59;;;19.79;100.00
7309;BME280;3695;53.330;9.876;2022-10-30T11:30:18;103696.41;;;19.82;100.00
7309;BME280;3695;53.330;9.876;2022-10-30T11:32:45;103708.09;;;19.97;100.00
7309;BME280;3695;53.330;9.876;2022-10-30T11:35:14;103719.72;;;20.06;100.00
7309;BME280;3695;53.330;9.876;2022-10-30T11:37:43;103704.47;;;19.90;100.00
7309;BME280;3695;53.330;9.876;2022-10-30T11:40:16;103650.69;;;20.01;100.00
7309;BME280;3695;53.330;9.876;2022-10-30T11:42:46;103617.44;;;19.96;100.00
7309;BME280;3695;53.330;9.876;2022-10-30T11:45:16;103613.41;;;19.98;100.00
7309;BME280;3695;53.330;9.876;2022-10-30T11:47:45;103591.38;;;20.11;100.00
7309;BME280;3695;53.330;9.876;2022-10-30T11:50:18;103539.69;;;20.07;100.00
7309;BME280;3695;53.330;9.876;2022-10-30T11:52:47;103515.72;;;20.14;100.00
7309;BME280;3695;53.330;9.876;2022-10-30T11:55:18;103486.72;;;20.11;100.00
7309;BME280;3695;53.330;9.876;2022-10-30T11:57:48;103477.59;;;20.18;100.00
7309;BME280;3695;53.330;9.876;2022-10-30T12:00:17;103445.94;;;19.89;100.00
7309;BME280;3695;53.330;9.876;2022-10-30T12:02:46;103498.63;;;19.99;100.00
7309;BME280;3695;53.330;9.876;2022-10-30T12:05:36;103537.63;;;19.89;100.00
7309;BME280;3695;53.330;9.876;2022-10-30T12:08:20;103585.47;;;19.88;100.00
7309;BME280;3695;53.330;9.876;2022-10-30T12:10:56;103592.03;;;19.87;100.00
7309;BME280;3695;53.330;9.876;2022-10-30T12:13:24;103619.78;;;19.92;100.00
7309;BME280;3695;53.330;9.876;2022-10-30T12:16:05;103628.25;;;19.97;100.00
7309;BME280;3695;53.330;9.876;2022-10-30T12:18:33;103643.06;;;20.03;100.00
7309;BME280;3695;53.330;9.876;2022-10-30T12:21:01;103611.09;;;19.89;100.00
7309;BME280;3695;53.330;9.876;2022-10-30T12:23:29;103603.25;;;19.92;100.00
7309;BME280;3695;53.330;9.876;2022-10-30T12:25:57;103555.78;;;20.03;100.00
7309;BME280;3695;53.330;9.876;2022-10-30T12:28:26;103531.03;;;19.97;100.00
7309;BME280;3695;53.330;9.876;2022-10-30T12:30:57;103560.88;;;20.06;100.00
7309;BME280;3695;53.330;9.876;2022-10-30T12:33:28;103568.50;;;20.04;100.00
7309;BME280;3695;53.330;9.876;2022-10-30T12:35:59;103596.06;;;19.98;100.00
7309;BME280;3695;53.330;9.876;2022-10-30T12:38:31;103617.44;;;20.09;100.00
7309;BME280;3695;53.330;9.876;2022-10-30T12:41:04;103597.09;;;20.03;100.00
7309;BME280;3695;53.330;9.876;2022-10-30T12:43:34;103579.94;;;20.01;100.00
7309;BME280;3695;53.330;9.876;2022-10-30T12:46:13;103547.97;;;19.94;100.00
7309;BME280;3695;53.330;9.876;2022-10-30T12:48:46;103549.00;;;20.12;100.00
7309;BME280;3695;53.330;9.876;2022-10-30T12:51:19;103592.19;;;20.19;100.00
7309;BME280;3695;53.330;9.876;2022-10-30T12:53:53;103575.50;;;20.00;100.00
7309;BME280;3695;53.330;9.876;2022-10-30T12:56:27;103567.22;;;20.13;100.00
7309;BME280;3695;53.330;9.876;2022-10-30T12:59:03;103598.97;;;20.23;100.00
7309;BME280;3695;53.330;9.876;2022-10-30T13:01:38;103605.56;;;20.08;100.00
7309;BME280;3695;53.330;9.876;2022-10-30T13:04:16;103600.69;;;20.04;100.00
7309;BME280;3695;53.330;9.876;2022-10-30T13:06:47;103585.00;;;20.18;100.00
7309;BME280;3695;53.330;9.876;2022-10-30T13:09:19;103564.63;;;20.25;100.00
7309;BME280;3695;53.330;9.876;2022-10-30T13:11:51;103512.94;;;20.27;100.00
7309;BME280;3695;53.330;9.876;2022-10-30T13:14:21;103475.22;;;20.34;100.00
7309;BME280;3695;53.330;9.876;2022-10-30T13:16:52;103488.34;;;20.32;100.00
7309;BME280;3695;53.330;9.876;2022-10-30T13:22:46;103501.06;;;20.27;100.00
7309;BME280;3695;53.330;9.876;2022-10-30T13:25:20;103537.06;;;20.32;100.00